Time;durP1;ratioP1;P1;durP2;ratioP2;P2;SDS_P1;SDS_P2;PMS_P1;PMS_P2;Temp;Humidity;BMP_temperature;BMP_pressure;BME280_temperature;BME280_humidity;BME280_pressure;Samples;Min_cycle;Max_cycle;Signal;HPM_P1;HPM_P2
2023/02/20 00:01:29;;;;;;;;;34.25;33.00;;;;;9.81;68.76;102088.88;5065263;28;45531;-69
2023/02/20 00:03:55;;;;;;;;;27.25;26.25;;;;;9.87;68.45;102094.03;5052682;28;45396;-68
2023/02/20 00:06:20;;;;;;;;;27.25;26.75;;;;;9.84;68.51;102097.56;5077295;28;45525;-66
2023/02/20 00:08:46;;;;;;;;;28.75;27.50;;;;;9.84;68.88;102096.72;5075503;28;46312;-64
2023/02/20 00:11:11;;;;;;;;;26.50;26.50;;;;;9.71;68.66;102074.97;5056286;28;45368;-65
2023/02/20 00:13:37;;;;;;;;;26.00;26.00;;;;;9.82;68.52;102090.59;5076368;27;45356;-64
2023/02/20 00:16:03;;;;;;;;;31.75;31.75;;;;;9.78;68.70;102087.13;5058839;28;45431;-64
2023/02/20 00:18:28;;;;;;;;;26.75;26.50;;;;;9.76;68.59;102087.16;5056766;28;47470;-63
2023/02/20 00:20:54;;;;;;;;;28.25;26.25;;;;;9.74;68.97;102075.81;5056386;28;45224;-65
2023/02/20 00:23:19;;;;;;;;;25.25;24.50;;;;;9.73;69.11;102078.44;5056540;28;45456;-64
2023/02/20 00:25:45;;;;;;;;;28.50;27.50;;;;;9.68;68.90;102072.38;5058418;28;45688;-64
2023/02/20 00:28:10;;;;;;;;;31.00;28.50;;;;;9.69;69.11;102072.38;5056552;28;45991;-65
2023/02/20 00:30:35;;;;;;;;;24.75;24.75;;;;;9.61;69.16;102067.19;5074377;27;45549;-64
2023/02/20 00:33:01;;;;;;;;;25.50;25.50;;;;;9.65;69.34;102078.56;5075784;28;45447;-65
2023/02/20 00:35:27;;;;;;;;;27.00;26.00;;;;;9.60;69.30;102068.09;5060319;28;45651;-66
2023/02/20 00:37:53;;;;;;;;;31.25;30.50;;;;;9.61;69.19;102074.22;5055748;28;46156;-64
2023/02/20 00:40:21;;;;;;;;;27.25;27.25;;;;;9.60;69.21;102072.47;5051460;28;45560;-66
2023/02/20 00:42:47;;;;;;;;;34.00;29.75;;;;;9.58;69.38;102066.38;5064174;28;45446;-63
2023/02/20 00:45:14;;;;;;;;;28.25;27.25;;;;;9.57;69.58;102078.63;5054434;28;45476;-64
2023/02/20 00:47:39;;;;;;;;;25.25;23.25;;;;;9.56;69.76;102071.63;5075825;27;45478;-65
2023/02/20 00:50:05;;;;;;;;;27.50;25.50;;;;;9.55;69.54;102071.66;5076743;28;45460;-62
2023/02/20 00:52:31;;;;;;;;;24.00;23.00;;;;;9.52;69.51;102066.41;5077619;28;45437;-62
2023/02/20 00:54:56;;;;;;;;;25.25;23.75;;;;;9.53;69.50;102065.53;5077687;28;45300;-62
2023/02/20 00:57:22;;;;;;;;;25.00;25.00;;;;;9.53;69.73;102068.16;5076601;28;46012;-62
2023/02/20 00:59:47;;;;;;;;;28.75;27.25;;;;;9.47;69.68;102059.47;5076940;28;45150;-62
2023/02/20 01:02:13;;;;;;;;;32.25;30.50;;;;;9.49;69.93;102069.97;5058547;28;45285;-63
2023/02/20 01:04:38;;;;;;;;;31.25;30.75;;;;;9.47;70.11;102062.09;5077166;28;45228;-64
2023/02/20 01:07:03;;;;;;;;;33.25;32.25;;;;;9.47;69.80;102058.63;5076572;28;46337;-62
2023/02/20 01:09:29;;;;;;;;;29.75;28.75;;;;;9.46;69.97;102062.13;5076183;28;45417;-63
2023/02/20 01:11:54;;;;;;;;;26.75;26.50;;;;;9.44;69.66;102069.16;5077146;28;45378;-67
2023/02/20 01:14:20;;;;;;;;;28.00;27.00;;;;;9.42;70.30;102071.78;5076807;27;45555;-64
2023/02/20 01:16:47;;;;;;;;;28.50;27.00;;;;;9.39;69.97;102061.31;5057987;27;48403;-62
2023/02/20 01:19:13;;;;;;;;;31.75;30.50;;;;;9.37;70.26;102056.97;5076592;27;45437;-63
2023/02/20 01:21:38;;;;;;;;;26.25;25.50;;;;;9.37;70.26;102063.09;5077067;28;45385;-67
2023/02/20 01:24:04;;;;;;;;;28.50;28.50;;;;;9.34;70.17;102057.88;5077849;28;45271;-68
2023/02/20 01:26:29;;;;;;;;;25.75;25.75;;;;;9.31;70.23;102055.28;5077206;27;45264;-64
2023/02/20 01:28:55;;;;;;;;;28.25;27.75;;;;;9.33;70.43;102059.66;5076483;28;45403;-64
2023/02/20 01:31:20;;;;;;;;;28.00;27.00;;;;;9.30;70.46;102054.44;5077831;27;51424;-64
2023/02/20 01:33:45;;;;;;;;;28.25;28.00;;;;;9.27;70.42;102053.56;5077511;28;45263;-64
2023/02/20 01:36:11;;;;;;;;;28.50;27.50;;;;;9.29;70.54;102052.69;5076330;28;46188;-69
2023/02/20 01:38:39;;;;;;;;;32.25;31.00;;;;;9.26;70.26;102047.47;5076328;27;45313;-65
2023/02/20 01:41:05;;;;;;;;;31.75;30.75;;;;;9.09;70.28;102020.53;5058317;28;45257;-63
2023/02/20 01:43:31;;;;;;;;;28.00;28.00;;;;;9.25;70.43;102048.34;5076662;28;45424;-64
2023/02/20 01:46:25;;;;;;;;;29.75;29.75;;;;;9.25;70.64;102072.00;5075912;27;45351;-63
2023/02/20 01:49:00;;;;;;;;;31.75;29.00;;;;;9.23;70.61;102065.00;5057819;28;45319;-65
2023/02/20 01:51:26;;;;;;;;;30.75;30.75;;;;;9.21;70.74;102057.16;5076252;28;45376;-64
2023/02/20 01:53:52;;;;;;;;;32.50;32.00;;;;;9.20;70.62;102073.78;5076734;27;45511;-66
2023/02/20 01:56:17;;;;;;;;;28.00;28.00;;;;;9.17;70.60;102072.06;5076161;27;45370;-64
2023/02/20 01:58:46;;;;;;;;;25.75;25.75;;;;;9.15;70.70;102075.59;5077490;28;45352;-64
2023/02/20 02:01:12;;;;;;;;;34.75;33.25;;;;;9.15;70.63;102080.84;5076096;28;45319;-65
2023/02/20 02:03:42;;;;;;;;;31.75;31.25;;;;;9.11;70.72;102066.00;5076583;28;45604;-63
2023/02/20 02:06:12;;;;;;;;;27.50;27.50;;;;;9.11;70.82;102072.13;5076039;28;45460;-64
2023/02/20 02:08:38;;;;;;;;;28.00;25.50;;;;;9.07;70.92;102075.66;5075871;27;45354;-63
2023/02/20 02:11:10;;;;;;;;;29.50;29.50;;;;;9.09;70.93;102071.25;5076297;28;45372;-64
2023/02/20 02:13:37;;;;;;;;;26.25;24.75;;;;;9.06;71.00;102066.94;5076234;27;45403;-63
2023/02/20 02:16:38;;;;;;;;;35.00;32.00;;;;;9.06;71.18;102061.69;5075943;27;45375;-63
2023/02/20 02:19:41;;;;;;;;;24.25;24.25;;;;;9.06;71.12;102056.44;5076327;28;45303;-64
2023/02/20 02:22:40;;;;;;;;;17.50;17.50;;;;;9.05;71.20;102054.69;5075956;28;45369;-64
2023/02/20 02:25:12;;;;;;;;;16.50;14.75;;;;;9.03;71.12;102056.47;5075771;28;45536;-63
2023/02/20 02:28:00;;;;;;;;;12.00;12.00;;;;;9.02;71.26;102049.47;5057411;28;45968;-64
2023/02/20 02:30:34;;;;;;;;;12.25;12.25;;;;;8.98;71.30;102045.13;5075599;27;45360;-65
2023/02/20 02:33:29;;;;;;;;;14.25;14.25;;;;;8.97;71.20;102039.91;5075752;28;45366;-66
2023/02/20 02:36:10;;;;;;;;;14.50;14.50;;;;;8.97;71.44;102029.41;5057639;28;46215;-64
2023/02/20 02:39:00;;;;;;;;;20.25;19.25;;;;;8.50;71.35;101959.03;5075580;28;45368;-63
2023/02/20 02:41:34;;;;;;;;;13.00;13.00;;;;;8.96;71.35;102028.50;5075997;27;45730;-64
2023/02/20 02:44:18;;;;;;;;;13.75;13.75;;;;;8.95;71.07;102025.91;5075959;28;45262;-64
2023/02/20 02:47:04;;;;;;;;;16.75;16.75;;;;;8.94;71.48;102013.69;5075892;28;45295;-64
2023/02/20 02:49:36;;;;;;;;;18.00;16.75;;;;;8.95;71.72;102018.91;5075383;28;45324;-64
2023/02/20 02:52:03;;;;;;;;;13.50;13.50;;;;;8.93;71.69;102012.78;5075815;28;45318;-66
2023/02/20 02:54:29;;;;;;;;;11.50;11.00;;;;;8.90;71.71;102013.72;5077135;28;45294;-65
2023/02/20 02:57:23;;;;;;;;;13.00;13.00;;;;;8.90;71.90;102016.34;5061917;28;45270;-63
2023/02/20 02:59:56;;;;;;;;;9.25;9.00;;;;;8.89;71.67;102011.09;5077402;27;45344;-65
2023/02/20 03:02:23;;;;;;;;;14.00;14.00;;;;;8.85;71.47;102007.66;5075579;28;45474;-65
2023/02/20 03:04:51;;;;;;;;;15.00;15.00;;;;;8.86;71.70;102006.75;5074929;28;45441;-66
2023/02/20 03:07:18;;;;;;;;;12.00;11.50;;;;;8.85;71.83;102004.13;5075537;27;45372;-64
2023/02/20 03:09:53;;;;;;;;;11.00;11.00;;;;;8.78;71.97;101992.84;5074437;28;46328;-65
2023/02/20 03:12:21;;;;;;;;;13.50;13.50;;;;;8.73;72.04;101985.00;5074967;28;45246;-63
2023/02/20 03:17:57;;;;;;;;;11.25;11.25;;;;;8.79;72.14;101991.97;5075712;27;45435;-65
2023/02/20 03:20:22;;;;;;;;;7.75;7.75;;;;;8.78;71.89;101992.84;5074944;28;45340;-65
2023/02/20 03:22:53;;;;;;;;;10.75;10.75;;;;;8.75;72.23;101992.88;5074841;28;45287;-65
2023/02/20 03:25:25;;;;;;;;;37.25;34.00;;;;;8.73;71.95;101986.78;5075246;28;45346;-65
2023/02/20 03:28:02;;;;;;;;;34.50;32.50;;;;;8.61;71.81;101977.25;5075129;28;45285;-66
2023/02/20 03:30:27;;;;;;;;;29.50;28.75;;;;;8.64;72.35;101987.72;5075519;28;46419;-65
2023/02/20 03:44:14;;;;;;;;;14.50;14.50;;;;;8.47;72.48;101969.47;5075028;27;45553;-63
2023/02/20 03:46:41;;;;;;;;;14.00;14.00;;;;;8.39;72.38;101950.31;5075788;28;45193;-62
2023/02/20 03:49:20;;;;;;;;;16.50;16.50;;;;;8.45;72.50;101963.38;5076117;28;45216;-65
2023/02/20 03:51:46;;;;;;;;;16.75;16.25;;;;;8.45;72.44;101959.00;5077187;28;45365;-66
2023/02/20 03:54:11;;;;;;;;;14.25;14.25;;;;;8.43;72.68;101952.03;5076467;28;45307;-65
2023/02/20 03:56:51;;;;;;;;;15.00;14.00;;;;;8.40;72.67;101954.69;5076548;28;45265;-64
2023/02/20 03:59:24;;;;;;;;;10.00;10.00;;;;;8.39;72.94;101960.81;5079177;28;45210;-64
2023/02/20 04:01:55;;;;;;;;;11.25;11.25;;;;;8.38;72.66;101959.97;5077766;27;46213;-63
2023/02/20 04:04:29;;;;;;;;;10.75;10.75;;;;;8.38;73.23;101953.81;5076860;28;45475;-64
2023/02/20 04:06:57;;;;;;;;;15.75;13.25;;;;;8.36;72.92;101958.22;5076943;28;46090;-64
2023/02/20 04:09:27;;;;;;;;;17.25;16.25;;;;;8.36;72.88;101952.97;5056775;28;45384;-63
2023/02/20 04:12:06;;;;;;;;;12.75;12.75;;;;;8.32;72.88;101947.75;5074824;28;46355;-65
2023/02/20 04:14:33;;;;;;;;;17.50;16.25;;;;;8.34;73.40;101943.38;5074535;27;45480;-64
2023/02/20 04:17:05;;;;;;;;;13.25;13.25;;;;;8.30;73.02;101938.19;5077803;27;45364;-64
2023/02/20 04:19:31;;;;;;;;;15.50;15.50;;;;;8.33;73.12;101944.25;5079731;27;45382;-62
2023/02/20 04:22:02;;;;;;;;;17.50;17.50;;;;;8.31;73.34;101946.00;5059165;27;46740;-65
2023/02/20 04:24:33;;;;;;;;;16.75;14.50;;;;;8.29;73.55;101942.53;5077895;28;45221;-65
2023/02/20 04:26:59;;;;;;;;;15.00;13.00;;;;;8.25;74.10;101939.97;5079748;28;45453;-63
2023/02/20 04:29:26;;;;;;;;;13.50;13.50;;;;;8.23;74.20;101939.97;5080000;28;45306;-64
2023/02/20 04:31:51;;;;;;;;;16.50;14.00;;;;;8.20;73.71;101942.63;5060036;28;46776;-63
2023/02/20 04:34:17;;;;;;;;;12.00;12.00;;;;;8.22;74.05;101948.72;5077398;27;45196;-63
2023/02/20 04:36:42;;;;;;;;;15.00;15.00;;;;;8.22;74.51;101951.34;5077384;27;45408;-66
2023/02/20 04:39:07;;;;;;;;;14.75;14.75;;;;;8.21;74.44;101944.34;5058611;28;54839;-64
2023/02/20 04:41:33;;;;;;;;;9.50;9.50;;;;;8.19;74.43;101948.75;5077025;27;49298;-63
2023/02/20 04:46:42;;;;;;;;;16.75;14.75;;;;;8.18;74.53;101945.28;5075123;28;45530;-63
2023/02/20 04:49:07;;;;;;;;;12.00;12.00;;;;;8.17;74.51;101945.28;5058586;28;45601;-62
2023/02/20 04:51:33;;;;;;;;;17.50;17.50;;;;;8.15;74.89;101941.78;5075330;27;45953;-62
2023/02/20 04:53:58;;;;;;;;;12.25;12.25;;;;;8.15;75.05;101941.78;5076947;28;45374;-65
2023/02/20 04:56:23;;;;;;;;;15.50;13.75;;;;;8.16;74.58;101952.28;5059100;28;45428;-63
2023/02/20 04:58:49;;;;;;;;;18.00;15.75;;;;;8.15;74.74;101944.41;5078937;28;45201;-63
2023/02/20 05:01:15;;;;;;;;;16.25;16.25;;;;;8.17;74.70;101943.53;5079339;27;46085;-63
2023/02/20 05:03:40;;;;;;;;;16.75;15.50;;;;;8.17;75.07;101945.28;5077376;27;45380;-64
2023/02/20 05:06:05;;;;;;;;;17.00;16.00;;;;;8.15;75.14;101939.16;5078327;27;45363;-64
2023/02/20 05:08:31;;;;;;;;;13.75;13.75;;;;;8.14;75.02;101940.06;5077261;28;45536;-65
2023/02/20 05:10:56;;;;;;;;;14.25;14.25;;;;;8.16;75.30;101947.03;5076620;28;46098;-62
2023/02/20 05:13:22;;;;;;;;;17.25;17.25;;;;;8.16;74.76;101943.53;5075922;28;45472;-64
2023/02/20 05:15:47;;;;;;;;;15.50;15.50;;;;;8.17;75.38;101940.03;5077171;28;45338;-64
2023/02/20 05:18:12;;;;;;;;;13.75;13.75;;;;;8.12;75.29;101929.59;5077299;27;45447;-64
2023/02/20 05:23:22;;;;;;;;;14.50;14.50;;;;;8.10;74.99;101926.13;5076657;28;45268;-62
2023/02/20 05:25:47;;;;;;;;;14.75;14.00;;;;;8.11;75.13;101927.84;5076613;28;45458;-64
2023/02/20 05:28:13;;;;;;;;;14.00;14.00;;;;;8.12;75.09;101934.84;5080701;28;45624;-62
2023/02/20 05:30:39;;;;;;;;;15.00;14.50;;;;;7.87;75.26;101882.59;5079956;27;45507;-64
2023/02/20 05:33:04;;;;;;;;;15.50;15.50;;;;;8.14;75.48;101929.56;5078770;28;45691;-63
2023/02/20 05:35:30;;;;;;;;;18.50;17.75;;;;;8.12;75.40;101928.72;5077048;27;45216;-65
2023/02/20 05:37:55;;;;;;;;;19.50;18.25;;;;;8.11;75.28;101927.84;5078918;28;45388;-63
2023/02/20 05:40:21;;;;;;;;;18.75;18.75;;;;;8.11;75.39;101917.38;5081359;28;45467;-64
2023/02/20 05:42:46;;;;;;;;;16.25;16.25;;;;;8.10;75.29;101917.38;5082548;28;45268;-64
2023/02/20 05:45:13;;;;;;;;;15.00;15.00;;;;;8.10;75.29;101914.75;5062023;28;45930;-64
2023/02/20 05:47:38;;;;;;;;;18.25;16.25;;;;;8.08;75.62;101919.13;5078812;28;45237;-66
2023/02/20 05:50:04;;;;;;;;;16.00;15.25;;;;;8.08;75.92;101921.75;5078204;27;46127;-64
2023/02/20 05:52:29;;;;;;;;;16.00;16.00;;;;;8.07;75.62;101920.03;5078398;28;45672;-66
2023/02/20 05:54:55;;;;;;;;;17.25;17.25;;;;;8.06;75.74;101905.19;5076666;28;45382;-62
2023/02/20 05:57:20;;;;;;;;;13.50;13.50;;;;;8.02;75.91;101907.81;5076774;27;45551;-64
2023/02/20 05:59:46;;;;;;;;;17.75;15.75;;;;;8.03;75.77;101914.81;5076339;27;46136;-63
2023/02/20 06:02:11;;;;;;;;;22.25;22.25;;;;;8.00;76.00;101909.59;5076332;28;45478;-64
2023/02/20 06:04:36;;;;;;;;;40.00;34.25;;;;;7.98;75.82;101915.75;5076143;28;45802;-64
2023/02/20 06:07:02;;;;;;;;;43.25;38.50;;;;;7.99;75.43;101927.97;5077401;28;45465;-65
2023/02/20 06:09:27;;;;;;;;;50.00;43.00;;;;;7.94;75.27;101914.88;5076688;28;46054;-66
2023/02/20 06:11:55;;;;;;;;;50.75;42.75;;;;;7.96;74.68;101923.59;5057305;28;45473;-64
2023/02/20 06:14:22;;;;;;;;;47.75;40.75;;;;;7.94;74.81;101922.75;5076446;28;45319;-64
2023/02/20 06:16:48;;;;;;;;;53.00;45.00;;;;;7.92;74.34;101921.00;5076745;27;45219;-65
2023/02/20 06:19:18;;;;;;;;;61.00;50.00;;;;;7.90;74.22;101921.03;5076956;28;45299;-65
2023/02/20 06:21:45;;;;;;;;;55.75;46.25;;;;;7.83;74.71;101901.84;5076450;28;45345;-64
2023/02/20 06:24:10;;;;;;;;;53.00;44.75;;;;;7.85;74.83;101918.41;5076296;27;45309;-62
2023/02/20 06:26:39;;;;;;;;;56.25;47.00;;;;;7.83;74.38;101919.34;5076292;27;45363;-63
2023/02/20 06:29:04;;;;;;;;;56.25;47.25;;;;;7.83;74.80;101917.56;5075542;27;46225;-64
2023/02/20 06:31:30;;;;;;;;;52.25;44.00;;;;;7.83;74.63;101919.34;5076006;28;45494;-65
2023/02/20 06:33:55;;;;;;;;;49.25;41.25;;;;;7.82;74.84;101915.81;5076506;27;45440;-64
2023/02/20 06:36:27;;;;;;;;;56.00;46.25;;;;;7.83;74.58;101919.34;5078911;28;45402;-63
2023/02/20 06:38:53;;;;;;;;;50.00;42.50;;;;;7.81;73.96;101914.09;5076855;28;46106;-65
2023/02/20 06:41:18;;;;;;;;;51.00;43.75;;;;;7.79;74.59;101915.84;5059003;28;45841;-62
2023/02/20 06:43:43;;;;;;;;;52.75;44.50;;;;;7.82;74.22;101925.44;5077053;27;47458;-64
2023/02/20 06:46:09;;;;;;;;;49.75;42.00;;;;;7.81;74.70;101929.81;5060086;28;45600;-65
2023/02/20 06:48:34;;;;;;;;;51.00;44.25;;;;;7.79;74.42;101930.72;5058959;28;45434;-65
2023/02/20 06:51:00;;;;;;;;;48.50;42.00;;;;;7.75;73.58;101932.47;5077309;28;45400;-66
2023/02/20 06:53:25;;;;;;;;;48.25;40.50;;;;;7.71;74.10;101929.00;5077680;28;45398;-64
2023/02/20 06:55:50;;;;;;;;;49.00;42.00;;;;;7.67;73.78;101936.88;5077619;27;45443;-65
2023/02/20 06:58:16;;;;;;;;;50.25;42.00;;;;;7.63;74.07;101924.69;5075896;27;46588;-64
2023/02/20 07:00:41;;;;;;;;;50.75;42.75;;;;;7.66;74.41;101935.16;5075286;28;45478;-64
2023/02/20 07:03:06;;;;;;;;;45.25;40.25;;;;;7.63;74.21;101936.06;5074503;28;56955;-63
2023/02/20 07:05:31;;;;;;;;;45.50;39.00;;;;;7.63;73.95;101919.44;5075378;27;45353;-65
2023/02/20 07:07:57;;;;;;;;;52.50;44.00;;;;;7.62;73.89;101926.47;5075142;28;45327;-68
2023/02/20 07:10:22;;;;;;;;;45.50;38.75;;;;;7.63;73.82;101925.56;5074894;27;45503;-66
2023/02/20 07:12:47;;;;;;;;;47.50;39.00;;;;;7.54;74.55;101916.00;5074757;28;46285;-64
2023/02/20 07:15:13;;;;;;;;;44.75;39.75;;;;;7.55;74.16;101922.13;5074804;27;46070;-64
2023/02/20 07:17:38;;;;;;;;;45.00;38.50;;;;;7.57;74.45;101941.31;5074268;28;46300;-63
2023/02/20 07:20:04;;;;;;;;;42.75;37.00;;;;;7.58;74.60;101940.44;5074421;27;49102;-63
2023/02/20 07:22:30;;;;;;;;;50.25;40.50;;;;;7.57;73.89;101936.94;5075140;28;45337;-68
2023/02/20 07:24:55;;;;;;;;;44.00;38.75;;;;;7.62;74.46;101941.28;5076359;28;45588;-64
2023/02/20 07:27:21;;;;;;;;;42.25;37.50;;;;;7.62;74.42;101950.03;5076669;27;46262;-63
2023/02/20 07:29:49;;;;;;;;;47.00;38.50;;;;;7.61;74.68;101943.03;5075432;28;45280;-65
2023/02/20 07:32:19;;;;;;;;;48.50;41.25;;;;;7.50;74.81;101921.28;5074906;27;45673;-66
2023/02/20 07:34:48;;;;;;;;;43.00;37.25;;;;;7.65;74.76;101951.75;5058389;28;45649;-65
2023/02/20 07:37:14;;;;;;;;;40.75;37.75;;;;;7.62;74.22;101950.03;5056197;28;46868;-63
2023/02/20 07:39:40;;;;;;;;;43.25;37.50;;;;;7.59;74.74;101945.66;5075250;27;45315;-63
2023/02/20 07:42:06;;;;;;;;;37.25;35.25;;;;;7.65;74.11;101954.34;5075590;28;45274;-66
2023/02/20 07:44:32;;;;;;;;;45.75;39.00;;;;;7.70;74.75;101955.19;5075392;27;45326;-66
2023/02/20 07:46:57;;;;;;;;;41.75;36.75;;;;;7.67;74.31;101953.47;5074814;28;47112;-65
2023/02/20 07:49:22;;;;;;;;;42.00;36.75;;;;;7.72;74.04;101954.31;5056997;28;45367;-63
2023/02/20 07:51:48;;;;;;;;;40.50;35.50;;;;;7.75;74.87;101959.53;5060108;28;45372;-65
2023/02/20 07:54:16;;;;;;;;;43.75;38.75;;;;;7.79;74.03;101965.63;5078495;27;45577;-62
2023/02/20 07:56:42;;;;;;;;;42.00;36.75;;;;;7.81;74.74;101965.63;5077896;27;48751;-65
2023/02/20 07:59:08;;;;;;;;;43.75;38.25;;;;;7.83;74.49;101963.88;5077859;28;45345;-64
2023/02/20 08:01:34;;;;;;;;;37.50;34.25;;;;;7.83;74.41;101959.47;5078112;28;45403;-64
2023/02/20 08:03:59;;;;;;;;;40.75;35.00;;;;;7.83;74.04;101956.00;5078410;28;45273;-65
2023/02/20 08:06:25;;;;;;;;;45.75;38.25;;;;;7.81;74.71;101958.63;5077718;27;45326;-68
2023/02/20 08:08:51;;;;;;;;;42.25;37.75;;;;;7.88;74.55;101973.41;5078241;27;45274;-67
2023/02/20 08:11:18;;;;;;;;;41.00;34.50;;;;;7.90;74.80;101971.66;5079670;28;45371;-65
2023/02/20 08:13:43;;;;;;;;;43.50;37.00;;;;;7.90;74.22;101970.81;5078565;28;45317;-67
2023/02/20 08:16:09;;;;;;;;;39.75;34.50;;;;;7.93;74.62;101964.66;5075559;28;46165;-69
2023/02/20 08:18:35;;;;;;;;;35.00;33.25;;;;;7.96;74.73;101973.38;5077737;27;45265;-67
2023/02/20 08:21:00;;;;;;;;;40.75;35.00;;;;;7.95;74.94;101968.13;5085777;27;45428;-69
2023/02/20 08:23:26;;;;;;;;;36.00;33.25;;;;;8.01;74.60;101978.59;5083804;27;45565;-68
2023/02/20 08:25:52;;;;;;;;;45.00;38.50;;;;;7.99;74.47;101970.75;5091639;27;46169;-70
2023/02/20 08:28:19;;;;;;;;;53.00;42.75;;;;;8.04;74.43;101982.06;5059548;27;45854;-66
2023/02/20 08:30:45;;;;;;;;;40.25;35.00;;;;;8.00;74.94;101964.63;5075694;27;45616;-71
2023/02/20 08:33:10;;;;;;;;;39.00;36.00;;;;;8.11;74.84;101971.53;5053572;28;45405;-70
2023/02/20 08:35:35;;;;;;;;;40.75;36.25;;;;;8.14;74.36;101975.00;5068893;28;45341;-67
2023/02/20 08:38:02;;;;;;;;;48.25;41.50;;;;;8.17;74.47;101971.47;5059273;28;45310;-67
2023/02/20 08:40:28;;;;;;;;;37.25;35.00;;;;;8.21;74.64;101978.44;5066768;28;45546;-71
2023/02/20 08:42:53;;;;;;;;;39.50;36.25;;;;;8.21;74.34;101978.44;5071783;28;45459;-67
2023/02/20 08:45:18;;;;;;;;;40.75;37.00;;;;;8.30;74.73;101980.13;5066304;28;46590;-72
2023/02/20 08:47:44;;;;;;;;;37.75;35.00;;;;;8.33;74.55;101975.72;5075055;28;45427;-71
2023/02/20 08:50:10;;;;;;;;;45.75;39.25;;;;;8.37;74.31;101973.94;5052608;28;45420;-72
2023/02/20 08:52:35;;;;;;;;;36.75;34.75;;;;;8.41;74.44;101966.91;5047758;28;45540;-73
2023/02/20 08:55:00;;;;;;;;;41.50;38.00;;;;;8.47;74.60;101972.09;5092176;27;46468;-72
2023/02/20 08:57:26;;;;;;;;;44.25;39.25;;;;;8.48;73.92;101974.72;5099183;27;45378;-72
2023/02/20 08:59:51;;;;;;;;;47.25;41.50;;;;;8.44;73.99;101974.75;5063714;27;45261;-72
2023/02/20 09:02:19;;;;;;;;;50.25;42.75;;;;;8.39;73.65;101966.06;5096455;27;45402;-71
2023/02/20 09:04:45;;;;;;;;;51.00;42.25;;;;;8.42;74.25;101971.28;5077614;27;48154;-72
2023/02/20 09:07:11;;;;;;;;;50.25;42.50;;;;;8.40;73.92;101976.53;5097632;27;45417;-73
2023/02/20 09:09:37;;;;;;;;;56.25;47.00;;;;;8.37;74.19;101966.09;5097631;27;45410;-73
2023/02/20 09:12:02;;;;;;;;;50.50;42.25;;;;;8.44;74.44;101969.50;5096203;27;45428;-72
2023/02/20 09:14:28;;;;;;;;;52.50;44.25;;;;;8.48;74.09;101971.22;5097440;27;46076;-72
2023/02/20 09:16:53;;;;;;;;;41.75;38.50;;;;;8.48;74.53;101971.22;5097390;27;45374;-73
2023/02/20 09:19:20;;;;;;;;;50.00;42.25;;;;;8.51;74.21;101973.88;5097458;27;45439;-73
2023/02/20 09:21:47;;;;;;;;;49.50;43.00;;;;;8.52;74.37;101970.38;5079255;27;45247;-73
2023/02/20 09:24:12;;;;;;;;;46.00;39.25;;;;;8.56;74.68;101961.59;5100629;27;46190;-74
2023/02/20 09:26:38;;;;;;;;;37.50;34.75;;;;;8.62;74.44;101965.88;5097398;27;59863;-74
2023/02/20 09:29:03;;;;;;;;;46.75;40.75;;;;;8.61;74.67;101962.41;5097378;27;45350;-74
2023/02/20 09:31:29;;;;;;;;;36.50;34.50;;;;;8.64;74.74;101964.13;5079288;27;45601;-73
2023/02/20 09:33:54;;;;;;;;;41.25;35.50;;;;;8.60;74.54;101952.81;5097433;27;45791;-73
2023/02/20 09:36:20;;;;;;;;;26.75;26.00;;;;;8.77;74.79;101975.38;5096991;27;52481;-73
2023/02/20 09:38:45;;;;;;;;;33.50;31.75;;;;;8.83;74.64;101975.31;5112995;27;45400;-72
2023/02/20 09:41:57;;;;;;;;;38.50;35.25;;;;;8.88;74.45;101970.88;5097845;27;45377;-72
2023/02/20 09:44:31;;;;;;;;;27.25;27.00;;;;;8.93;74.30;101969.94;5098965;27;46305;-74
2023/02/20 09:47:21;;;;;;;;;43.50;39.50;;;;;8.96;74.27;101965.53;5097713;27;45253;-74
2023/02/20 09:49:47;;;;;;;;;45.50;39.75;;;;;9.00;74.01;101964.59;5097307;27;45481;-73
2023/02/20 09:52:15;;;;;;;;;47.25;40.25;;;;;8.99;73.98;101964.63;5096865;27;45626;-71
2023/02/20 09:54:48;;;;;;;;;39.50;35.25;;;;;8.75;74.07;101903.69;5096403;27;45239;-74
2023/02/20 09:57:19;;;;;;;;;48.00;41.50;;;;;9.05;73.89;101962.81;5112281;27;45262;-74
2023/02/20 10:00:01;;;;;;;;;47.50;39.50;;;;;9.12;73.59;101963.59;5097068;27;45372;-73
2023/02/20 10:02:35;;;;;;;;;42.25;37.75;;;;;9.16;73.81;101962.69;5078825;27;45581;-73
2023/02/20 10:05:17;;;;;;;;;44.75;39.00;;;;;9.21;73.74;101966.13;5096368;27;45354;-74
2023/02/20 10:07:43;;;;;;;;;29.75;29.75;;;;;9.25;74.05;101951.22;5096502;27;45468;-72
2023/02/20 10:10:20;;;;;;;;;32.25;31.75;;;;;9.37;73.51;101960.66;5097131;27;45380;-75
2023/02/20 10:13:23;;;;;;;;;30.00;28.25;;;;;9.44;73.47;101961.47;5097219;27;45216;-73
2023/02/20 10:15:48;;;;;;;;;25.75;22.25;;;;;9.53;73.73;101957.84;5096421;27;45371;-72
2023/02/20 10:18:38;;;;;;;;;25.50;25.50;;;;;9.58;72.83;101956.03;5096453;27;45445;-73
2023/02/20 10:21:20;;;;;;;;;69.50;54.75;;;;;9.64;73.12;101954.19;5096699;27;45262;-73
2023/02/20 10:23:50;;;;;;;;;36.25;34.25;;;;;9.71;72.71;101944.47;5096563;27;45320;-71
2023/02/20 10:26:27;;;;;;;;;49.50;41.25;;;;;9.72;72.59;101951.47;5096214;27;45362;-74
2023/02/20 10:28:58;;;;;;;;;51.25;42.75;;;;;9.71;72.22;101943.59;5096377;27;45478;-73
2023/02/20 10:31:41;;;;;;;;;46.00;37.25;;;;;9.81;72.43;101953.06;5097480;27;45276;-74
2023/02/20 10:34:16;;;;;;;;;49.75;40.00;;;;;9.84;71.98;101960.03;5096886;27;45242;-74
2023/02/20 10:36:50;;;;;;;;;48.75;40.50;;;;;9.76;71.96;101953.16;5078189;27;47509;-73
2023/02/20 10:39:18;;;;;;;;;43.75;38.25;;;;;9.74;71.61;101957.56;5077972;27;45628;-73
2023/02/20 10:41:45;;;;;;;;;45.25;39.25;;;;;9.74;71.97;101960.19;5097077;27;45371;-73
2023/02/20 10:44:18;;;;;;;;;46.25;39.75;;;;;9.75;71.90;101964.56;5096717;27;45278;-74
2023/02/20 10:46:53;;;;;;;;;48.75;40.75;;;;;9.71;72.39;101954.97;5096496;27;46207;-73
2023/02/20 10:49:40;;;;;;;;;44.00;36.25;;;;;9.73;72.05;101968.97;5096620;27;45334;-72
2023/02/20 10:52:11;;;;;;;;;30.00;30.00;;;;;9.71;71.72;101969.84;5077544;27;45440;-73
2023/02/20 10:54:44;;;;;;;;;34.00;33.25;;;;;9.68;72.15;101968.16;5095956;27;45408;-73
2023/02/20 10:57:35;;;;;;;;;35.50;33.25;;;;;9.60;72.01;101960.38;5095937;27;45354;-74
2023/02/20 11:00:12;;;;;;;;;46.75;39.25;;;;;9.54;72.17;101954.31;5095891;27;45415;-74
2023/02/20 11:02:46;;;;;;;;;37.00;34.25;;;;;9.61;72.08;101958.63;5096123;27;45445;-75
2023/02/20 11:05:16;;;;;;;;;37.00;34.50;;;;;9.68;72.73;101952.41;5077323;27;45439;-73
2023/02/20 11:07:41;;;;;;;;;38.75;35.25;;;;;9.77;72.55;101960.13;5096175;27;45399;-74
2023/02/20 11:10:07;;;;;;;;;39.00;35.75;;;;;9.82;72.05;101952.16;5096312;27;45216;-72
2023/02/20 11:12:39;;;;;;;;;36.75;34.50;;;;;9.85;72.43;101953.91;5095733;27;45314;-73
2023/02/20 11:15:09;;;;;;;;;35.75;32.50;;;;;9.91;71.58;101953.81;5095919;27;45281;-74
2023/02/20 11:17:37;;;;;;;;;32.25;30.00;;;;;9.93;71.63;101952.03;5095355;27;46156;-73
2023/02/20 11:20:05;;;;;;;;;35.50;32.75;;;;;9.89;71.89;101945.06;5095930;27;45476;-73
2023/02/20 11:22:48;;;;;;;;;29.75;29.00;;;;;9.95;71.44;101942.34;5077328;27;45392;-73
2023/02/20 11:25:20;;;;;;;;;32.75;31.25;;;;;9.88;71.37;101944.19;5097703;27;45401;-73
2023/02/20 11:27:48;;;;;;;;;36.75;34.00;;;;;9.83;71.46;101925.00;5099073;27;45401;-73
2023/02/20 11:30:14;;;;;;;;;43.25;37.00;;;;;9.90;71.78;101938.94;5080511;27;45441;-73
2023/02/20 11:32:40;;;;;;;;;35.75;34.25;;;;;9.94;71.48;101932.72;5080714;27;45353;-73
2023/02/20 11:35:17;;;;;;;;;37.75;35.00;;;;;9.99;71.52;101932.63;5099530;27;45632;-73
2023/02/20 11:37:51;;;;;;;;;39.00;35.75;;;;;10.01;71.09;101920.34;5098991;27;46756;-73
2023/02/20 11:40:25;;;;;;;;;36.50;34.00;;;;;10.07;71.12;101918.50;5099583;27;45394;-73
2023/02/20 11:42:51;;;;;;;;;39.25;34.75;;;;;10.09;70.92;101906.19;5099451;27;45364;-72
2023/02/20 11:45:22;;;;;;;;;19.25;18.00;;;;;10.07;70.58;101901.84;5099269;27;45538;-74